Time;durP1;ratioP1;P1;durP2;ratioP2;P2;SDS_P1;SDS_P2;PMS_P1;PMS_P2;Temp;Humidity;BMP_temperature;BMP_pressure;BME280_temperature;BME280_humidity;BME280_pressure;Samples;Min_cycle;Max_cycle;Signal;HPM_P1;HPM_P2
2023/10/16 00:02:12;;;;;;;;;;;;;;;;;;5053605;28;20066;-66
2023/10/16 00:04:38;;;;;;;;;;;;;;;;;;5053444;28;19982;-67
2023/10/16 00:07:04;;;;;;;;;;;;;;;;;;5053564;28;19992;-67
2023/10/16 00:09:33;;;;;;;;;;;;;;;;;;5053563;28;19986;-66
2023/10/16 00:12:02;;;;;;;;;;;;;;;;;;5053488;28;19986;-67
2023/10/16 00:14:30;;;;;;;;;;;;;;;;;;5053506;28;19990;-66
2023/10/16 00:16:56;;;;;;;;;;;;;;;;;;5052089;28;19992;-67
2023/10/16 00:19:25;;;;;;;;;;;;;;;;;;5053078;28;20009;-67
2023/10/16 00:21:52;;;;;;;;;;;;;;;;;;5053188;28;20085;-67
2023/10/16 00:24:18;;;;;;;;;;;;;;;;;;5053166;28;19986;-68
2023/10/16 00:26:50;;;;;;;;;;;;;;;;;;5053122;28;20040;-67
2023/10/16 00:29:31;;;;;;;;;;;;;;;;;;5053216;28;20466;-67
2023/10/16 00:31:59;;;;;;;;;;;;;;;;;;5051664;28;20421;-67
2023/10/16 00:34:24;;;;;;;;;;;;;;;;;;5053029;28;19982;-66
2023/10/16 00:36:53;;;;;;;;;;;;;;;;;;5052973;28;20035;-66
2023/10/16 00:39:20;;;;;;;;;;;;;;;;;;5052900;28;20013;-67
2023/10/16 00:41:50;;;;;;;;;;;;;;;;;;5051561;28;20099;-67
2023/10/16 00:44:18;;;;;;;;;;;;;;;;;;5052960;28;20025;-66
2023/10/16 00:46:48;;;;;;;;;;;;;;;;;;5052667;28;20505;-67
2023/10/16 00:49:14;;;;;;;;;;;;;;;;;;5052487;28;20072;-68
2023/10/16 00:51:40;;;;;;;;;;;;;;;;;;5052602;28;20004;-67
2023/10/16 00:54:06;;;;;;;;;;;;;;;;;;5052713;28;19997;-67
2023/10/16 00:56:32;;;;;;;;;;;;;;;;;;5052727;28;20027;-67
2023/10/16 00:58:58;;;;;;;;;;;;;;;;;;5052272;28;20110;-67
2023/10/16 01:01:24;;;;;;;;;;;;;;;;;;5052036;28;20072;-67
2023/10/16 01:03:50;;;;;;;;;;;;;;;;;;5052514;28;20025;-67
2023/10/16 01:06:17;;;;;;;;;;;;;;;;;;5052206;28;19997;-68
2023/10/16 01:08:43;;;;;;;;;;;;;;;;;;5052436;28;19990;-67
2023/10/16 01:11:09;;;;;;;;;;;;;;;;;;5052780;28;20426;-67
2023/10/16 01:13:38;;;;;;;;;;;;;;;;;;5051345;28;19994;-67
2023/10/16 01:16:04;;;;;;;;;;;;;;;;;;5052539;28;19981;-68
2023/10/16 01:18:31;;;;;;;;;;;;;;;;;;5052347;28;20108;-66
2023/10/16 01:20:57;;;;;;;;;;;;;;;;;;5052517;28;19989;-67
2023/10/16 01:23:25;;;;;;;;;;;;;;;;;;5052290;28;20482;-67
2023/10/16 01:25:51;;;;;;;;;;;;;;;;;;5052252;28;20021;-66
2023/10/16 01:28:17;;;;;;;;;;;;;;;;;;5052260;28;19982;-67
2023/10/16 01:30:43;;;;;;;;;;;;;;;;;;5050867;28;19992;-67
2023/10/16 01:33:10;;;;;;;;;;;;;;;;;;5051828;28;20021;-66
2023/10/16 01:35:36;;;;;;;;;;;;;;;;;;5052036;28;20062;-66
2023/10/16 01:38:04;;;;;;;;;;;;;;;;;;5051802;28;19988;-66
2023/10/16 01:40:37;;;;;;;;;;;;;;;;;;5052133;28;19986;-66
2023/10/16 01:43:05;;;;;;;;;;;;;;;;;;5051677;28;20430;-66
2023/10/16 01:45:31;;;;;;;;;;;;;;;;;;5051603;28;20017;-68
2023/10/16 01:47:58;;;;;;;;;;;;;;;;;;5051777;28;19985;-67
2023/10/16 01:50:26;;;;;;;;;;;;;;;;;;5051575;28;20113;-66
2023/10/16 01:52:54;;;;;;;;;;;;;;;;;;5050610;28;19986;-67
2023/10/16 01:55:22;;;;;;;;;;;;;;;;;;5050790;28;21509;-66
2023/10/16 01:57:50;;;;;;;;;;;;;;;;;;5051513;28;20008;-67
2023/10/16 02:00:16;;;;;;;;;;;;;;;;;;5050012;28;20019;-67
2023/10/16 02:02:42;;;;;;;;;;;;;;;;;;5051471;28;19982;-66
2023/10/16 02:05:10;;;;;;;;;;;;;;;;;;5051380;28;20004;-66
2023/10/16 02:07:41;;;;;;;;;;;;;;;;;;5051170;28;20552;-67
2023/10/16 02:10:07;;;;;;;;;;;;;;;;;;5051508;28;19986;-67
2023/10/16 02:12:33;;;;;;;;;;;;;;;;;;5051023;28;19986;-67
2023/10/16 02:15:05;;;;;;;;;;;;;;;;;;5051263;28;20072;-66
2023/10/16 02:17:31;;;;;;;;;;;;;;;;;;5050027;28;19998;-68
2023/10/16 02:19:57;;;;;;;;;;;;;;;;;;5050937;28;20120;-66
2023/10/16 02:22:23;;;;;;;;;;;;;;;;;;5051133;28;19989;-66
2023/10/16 02:24:50;;;;;;;;;;;;;;;;;;5051187;28;19986;-66
2023/10/16 02:27:18;;;;;;;;;;;;;;;;;;5051041;28;19986;-66
2023/10/16 02:29:49;;;;;;;;;;;;;;;;;;5051010;28;20012;-66
2023/10/16 02:32:15;;;;;;;;;;;;;;;;;;5049937;28;19986;-67
2023/10/16 02:34:41;;;;;;;;;;;;;;;;;;5046408;28;20005;-67
2023/10/16 02:37:09;;;;;;;;;;;;;;;;;;5032628;28;19986;-67
2023/10/16 02:39:35;;;;;;;;;;;;;;;;;;5030892;28;20006;-67
2023/10/16 02:42:05;;;;;;;;;;;;;;;;;;5049618;28;19996;-67
2023/10/16 02:44:31;;;;;;;;;;;;;;;;;;5051057;28;20028;-67
2023/10/16 02:46:57;;;;;;;;;;;;;;;;;;5050793;28;20065;-68
2023/10/16 02:49:24;;;;;;;;;;;;;;;;;;5049631;28;20144;-67
2023/10/16 02:51:52;;;;;;;;;;;;;;;;;;5051123;28;19990;-67
2023/10/16 02:54:18;;;;;;;;;;;;;;;;;;5031784;28;20018;-67
2023/10/16 02:56:44;;;;;;;;;;;;;;;;;;5031005;28;20334;-67
2023/10/16 02:59:11;;;;;;;;;;;;;;;;;;5031008;28;20525;-67
2023/10/16 03:01:38;;;;;;;;;;;;;;;;;;5031084;28;20389;-67
2023/10/16 03:04:05;;;;;;;;;;;;;;;;;;5029707;28;19986;-68
2023/10/16 03:06:35;;;;;;;;;;;;;;;;;;5030819;28;20006;-66
2023/10/16 03:09:25;;;;;;;;;;;;;;;;;;5030724;28;20515;-68
2023/10/16 03:11:47;;;;;;;;;;;;;;;;;;5031431;28;19997;-67
2023/10/16 03:14:13;;;;;;;;;;;;;;;;;;5031004;28;19987;-67
2023/10/16 03:16:40;;;;;;;;;;;;;;;;;;5030953;28;20073;-67
2023/10/16 03:19:10;;;;;;;;;;;;;;;;;;5030562;28;20076;-67
2023/10/16 03:21:39;;;;;;;;;;;;;;;;;;5030788;28;20052;-67
2023/10/16 03:24:07;;;;;;;;;;;;;;;;;;5032462;28;19986;-69
2023/10/16 03:26:34;;;;;;;;;;;;;;;;;;5034350;28;20012;-67
2023/10/16 03:29:03;;;;;;;;;;;;;;;;;;5034595;28;19982;-67
2023/10/16 03:31:29;;;;;;;;;;;;;;;;;;5034375;28;19993;-67
2023/10/16 03:33:55;;;;;;;;;;;;;;;;;;5034339;28;19992;-66
2023/10/16 03:36:21;;;;;;;;;;;;;;;;;;5034204;28;20481;-66
2023/10/16 03:38:49;;;;;;;;;;;;;;;;;;5034199;28;20002;-67
2023/10/16 03:43:46;;;;;;;;;;;;;;;;;;5034539;28;19987;-68
2023/10/16 03:46:15;;;;;;;;;;;;;;;;;;5033720;28;20130;-67
2023/10/16 03:48:41;;;;;;;;;;;;;;;;;;5033785;28;19986;-68
2023/10/16 03:51:07;;;;;;;;;;;;;;;;;;5034234;28;19990;-67
2023/10/16 03:53:33;;;;;;;;;;;;;;;;;;5033958;28;20073;-67
2023/10/16 03:56:01;;;;;;;;;;;;;;;;;;5042811;28;19997;-68
2023/10/16 03:58:27;;;;;;;;;;;;;;;;;;5053612;28;20002;-68
2023/10/16 04:00:52;;;;;;;;;;;;;;;;;;5041171;28;19997;-68
2023/10/16 04:03:19;;;;;;;;;;;;;;;;;;5033690;28;19983;-67
2023/10/16 04:05:47;;;;;;;;;;;;;;;;;;5033528;28;20006;-67
2023/10/16 04:08:17;;;;;;;;;;;;;;;;;;5033560;28;20048;-67
2023/10/16 04:10:46;;;;;;;;;;;;;;;;;;5032137;28;20036;-67
2023/10/16 04:13:12;;;;;;;;;;;;;;;;;;5033449;28;19986;-67
2023/10/16 04:18:27;;;;;;;;;;;;;;;;;;5033551;28;19986;-67
2023/10/16 04:21:09;;;;;;;;;;;;;;;;;;5031930;28;19997;-68
2023/10/16 04:36:52;;;;;;;;;;;;;;;;;;5032255;28;19993;-67
2023/10/16 04:45:00;;;;;;;;;;;;;;;;;;5052311;28;20059;-67
2023/10/16 04:47:28;;;;;;;;;;;;;;;;;;5052240;28;20017;-66
2023/10/16 04:50:06;;;;;;;;;;;;;;;;;;5052273;28;20021;-67
2023/10/16 04:55:52;;;;;;;;;;;;;;;;;;5032529;28;20016;-67
2023/10/16 05:06:14;;;;;;;;;;;;;;;;;;5052796;28;20001;-67
2023/10/16 05:17:21;;;;;;;;;;;;;;;;;;5052314;28;19988;-67
2023/10/16 05:19:53;;;;;;;;;;;;;;;;;;5051941;28;20018;-67
2023/10/16 06:14:36;;;;;;;;;;;;;;;;;;5031289;28;20000;-68
2023/10/16 06:17:13;;;;;;;;;;;;;;;;;;5030101;28;20439;-67
2023/10/16 06:19:42;;;;;;;;;;;;;;;;;;5029677;28;20417;-66
2023/10/16 06:22:08;;;;;;;;;;;;;;;;;;5031734;28;20400;-67
2023/10/16 06:24:47;;;;;;;;;;;;;;;;;;5051085;28;19990;-68
2023/10/16 06:27:19;;;;;;;;;;;;;;;;;;5051299;28;19986;-67
2023/10/16 06:29:50;;;;;;;;;;;;;;;;;;5050123;28;19982;-68
2023/10/16 06:32:19;;;;;;;;;;;;;;;;;;5049432;28;20075;-68
2023/10/16 06:34:45;;;;;;;;;;;;;;;;;;5049220;28;20028;-67
2023/10/16 06:37:16;;;;;;;;;;;;;;;;;;5049357;28;20080;-68
2023/10/16 06:39:42;;;;;;;;;;;;;;;;;;5048271;28;20014;-66
2023/10/16 06:42:14;;;;;;;;;;;;;;;;;;5049893;28;20028;-68
2023/10/16 06:44:42;;;;;;;;;;;;;;;;;;5050217;28;19992;-67
2023/10/16 06:47:12;;;;;;;;;;;;;;;;;;5051087;28;20022;-68
2023/10/16 06:49:38;;;;;;;;;;;;;;;;;;5049303;28;20069;-69
2023/10/16 06:52:04;;;;;;;;;;;;;;;;;;5051075;28;19989;-68
2023/10/16 06:54:30;;;;;;;;;;;;;;;;;;5049714;28;19990;-68
2023/10/16 06:56:59;;;;;;;;;;;;;;;;;;5051062;28;20342;-68
2023/10/16 06:59:27;;;;;;;;;;;;;;;;;;5044636;28;20014;-67
2023/10/16 07:01:53;;;;;;;;;;;;;;;;;;5038357;28;20088;-67
2023/10/16 07:04:19;;;;;;;;;;;;;;;;;;5050750;28;19994;-70
2023/10/16 07:06:47;;;;;;;;;;;;;;;;;;5049023;28;20481;-68
2023/10/16 07:09:13;;;;;;;;;;;;;;;;;;5055138;28;20009;-69
2023/10/16 07:11:42;;;;;;;;;;;;;;;;;;5050864;28;19989;-67
2023/10/16 07:14:12;;;;;;;;;;;;;;;;;;5050398;28;19993;-70
2023/10/16 07:16:38;;;;;;;;;;;;;;;;;;5037792;28;20029;-66
2023/10/16 07:19:07;;;;;;;;;;;;;;;;;;5054103;28;20009;-68
2023/10/16 07:21:33;;;;;;;;;;;;;;;;;;5054600;28;20032;-67
2023/10/16 07:23:59;;;;;;;;;;;;;;;;;;5054696;28;20012;-68
2023/10/16 07:26:26;;;;;;;;;;;;;;;;;;5054561;28;19986;-68
2023/10/16 07:28:52;;;;;;;;;;;;;;;;;;5054424;28;19993;-68
2023/10/16 07:31:18;;;;;;;;;;;;;;;;;;5054309;28;19986;-67
2023/10/16 07:33:45;;;;;;;;;;;;;;;;;;5053014;28;19990;-68
2023/10/16 07:36:11;;;;;;;;;;;;;;;;;;5054527;28;20103;-68
2023/10/16 07:38:40;;;;;;;;;;;;;;;;;;5054119;28;20115;-67
2023/10/16 07:41:09;;;;;;;;;;;;;;;;;;5054078;28;20451;-66
2023/10/16 07:43:36;;;;;;;;;;;;;;;;;;5054199;28;19985;-67
2023/10/16 07:48:34;;;;;;;;;;;;;;;;;;5052803;28;19994;-67
2023/10/16 07:51:01;;;;;;;;;;;;;;;;;;5054013;28;19993;-68
2023/10/16 07:53:28;;;;;;;;;;;;;;;;;;5053942;28;19985;-68
2023/10/16 07:55:55;;;;;;;;;;;;;;;;;;5054094;28;19986;-68
2023/10/16 07:58:33;;;;;;;;;;;;;;;;;;5053949;28;19985;-68
2023/10/16 08:01:16;;;;;;;;;;;;;;;;;;5054070;28;20059;-67
2023/10/16 08:03:45;;;;;;;;;;;;;;;;;;5052680;28;19997;-68
2023/10/16 08:06:24;;;;;;;;;;;;;;;;;;5036158;28;20394;-67
2023/10/16 08:08:49;;;;;;;;;;;;;;;;;;5033679;28;20032;-67
2023/10/16 08:11:18;;;;;;;;;;;;;;;;;;5032415;28;19986;-67
2023/10/16 08:13:47;;;;;;;;;;;;;;;;;;5033604;28;20080;-67
2023/10/16 08:16:17;;;;;;;;;;;;;;;;;;5033647;28;19986;-69
2023/10/16 08:18:43;;;;;;;;;;;;;;;;;;5033428;28;20454;-67
2023/10/16 08:21:10;;;;;;;;;;;;;;;;;;5033469;28;19990;-67
2023/10/16 08:23:37;;;;;;;;;;;;;;;;;;5043022;28;20367;-67
2023/10/16 08:26:49;;;;;;;;;;;;;;;;;;5053071;28;20587;-68
2023/10/16 08:28:49;;;;;;;;;;;;;;;;;;5052467;28;19985;-67
2023/10/16 08:31:25;;;;;;;;;;;;;;;;;;5051957;28;19986;-67
2023/10/16 08:33:51;;;;;;;;;;;;;;;;;;5053090;28;19985;-67
2023/10/16 08:36:20;;;;;;;;;;;;;;;;;;5053040;28;19986;-68
2023/10/16 08:38:55;;;;;;;;;;;;;;;;;;5053062;28;20006;-68
2023/10/16 08:41:22;;;;;;;;;;;;;;;;;;5053161;28;20406;-68
2023/10/16 08:43:54;;;;;;;;;;;;;;;;;;5053118;28;19986;-68
2023/10/16 08:49:09;;;;;;;;;;;;;;;;;;5041794;28;20438;-68
2023/10/16 08:51:36;;;;;;;;;;;;;;;;;;5032891;28;20556;-68
2023/10/16 08:54:04;;;;;;;;;;;;;;;;;;5033005;28;20400;-70
2023/10/16 08:56:30;;;;;;;;;;;;;;;;;;5044265;28;19997;-68
2023/10/16 08:58:57;;;;;;;;;;;;;;;;;;5052499;28;20005;-69
2023/10/16 09:01:23;;;;;;;;;;;;;;;;;;5052997;28;20087;-68
2023/10/16 09:03:50;;;;;;;;;;;;;;;;;;5051532;28;20018;-68
2023/10/16 09:06:16;;;;;;;;;;;;;;;;;;5051524;28;20016;-69
2023/10/16 09:08:45;;;;;;;;;;;;;;;;;;5052741;28;20080;-67
2023/10/16 09:11:11;;;;;;;;;;;;;;;;;;5052682;28;20014;-69
2023/10/16 09:13:45;;;;;;;;;;;;;;;;;;5052611;28;20039;-68
2023/10/16 09:16:15;;;;;;;;;;;;;;;;;;5051250;28;19986;-68
2023/10/16 09:18:41;;;;;;;;;;;;;;;;;;5052091;28;20013;-67
2023/10/16 09:21:13;;;;;;;;;;;;;;;;;;5051987;28;19989;-66
2023/10/16 09:23:39;;;;;;;;;;;;;;;;;;5052256;28;20005;-67
2023/10/16 09:26:06;;;;;;;;;;;;;;;;;;5052338;28;19989;-67
2023/10/16 09:28:32;;;;;;;;;;;;;;;;;;5050990;28;20426;-67
2023/10/16 09:31:01;;;;;;;;;;;;;;;;;;5052235;28;19982;-68
2023/10/16 09:33:27;;;;;;;;;;;;;;;;;;5050766;28;20084;-68
2023/10/16 09:36:00;;;;;;;;;;;;;;;;;;5052149;28;20640;-68
2023/10/16 09:38:32;;;;;;;;;;;;;;;;;;5052016;28;20054;-67
2023/10/16 09:41:12;;;;;;;;;;;;;;;;;;5050690;28;19990;-67
2023/10/16 09:43:40;;;;;;;;;;;;;;;;;;5050849;28;19993;-67
2023/10/16 09:48:51;;;;;;;;;;;;;;;;;;5051868;28;20028;-67
2023/10/16 09:51:17;;;;;;;;;;;;;;;;;;5045730;28;20089;-67
2023/10/16 09:53:43;;;;;;;;;;;;;;;;;;5031830;28;20032;-67
2023/10/16 09:56:09;;;;;;;;;;;;;;;;;;5032001;28;19986;-67
2023/10/16 09:58:35;;;;;;;;;;;;;;;;;;5031462;28;20037;-68
2023/10/16 10:01:07;;;;;;;;;;;;;;;;;;5031648;28;19982;-67
2023/10/16 10:03:33;;;;;;;;;;;;;;;;;;5031580;28;19982;-68
2023/10/16 10:06:08;;;;;;;;;;;;;;;;;;5031593;28;20029;-68
2023/10/16 10:11:38;;;;;;;;;;;;;;;;;;5031670;28;20005;-68
2023/10/16 10:14:11;;;;;;;;;;;;;;;;;;5031504;28;20009;-68
2023/10/16 10:16:37;;;;;;;;;;;;;;;;;;5033267;28;19990;-68
2023/10/16 10:19:04;;;;;;;;;;;;;;;;;;5051217;28;20354;-68
2023/10/16 10:21:34;;;;;;;;;;;;;;;;;;5051329;28;20072;-68
2023/10/16 10:24:03;;;;;;;;;;;;;;;;;;5051591;28;19982;-68
2023/10/16 10:26:29;;;;;;;;;;;;;;;;;;5051404;28;19985;-68
2023/10/16 10:28:55;;;;;;;;;;;;;;;;;;5051541;28;19997;-68
2023/10/16 10:31:21;;;;;;;;;;;;;;;;;;5051505;28;19990;-67
2023/10/16 10:33:51;;;;;;;;;;;;;;;;;;5052885;28;20031;-68
2023/10/16 10:36:18;;;;;;;;;;;;;;;;;;5054326;28;19990;-68
2023/10/16 10:38:46;;;;;;;;;;;;;;;;;;5055408;28;20005;-68
2023/10/16 10:41:15;;;;;;;;;;;;;;;;;;5055515;28;19990;-69
2023/10/16 10:43:46;;;;;;;;;;;;;;;;;;5055504;28;19989;-68
2023/10/16 10:46:12;;;;;;;;;;;;;;;;;;5055200;28;20028;-68
2023/10/16 10:48:38;;;;;;;;;;;;;;;;;;5055217;28;20366;-68
2023/10/16 10:51:05;;;;;;;;;;;;;;;;;;5053904;28;20009;-67
2023/10/16 10:53:33;;;;;;;;;;;;;;;;;;5054881;28;19992;-68
2023/10/16 10:55:59;;;;;;;;;;;;;;;;;;5055027;28;19993;-68
2023/10/16 10:58:25;;;;;;;;;;;;;;;;;;5055264;28;19990;-67
2023/10/16 11:01:00;;;;;;;;;;;;;;;;;;5053816;28;20032;-67
2023/10/16 11:03:33;;;;;;;;;;;;;;;;;;5055102;28;20013;-68
2023/10/16 11:05:59;;;;;;;;;;;;;;;;;;5054796;28;20002;-67
2023/10/16 11:08:30;;;;;;;;;;;;;;;;;;5055158;28;20476;-67
2023/10/16 11:10:56;;;;;;;;;;;;;;;;;;5054917;28;19989;-67
2023/10/16 11:13:26;;;;;;;;;;;;;;;;;;5054870;28;19989;-67
2023/10/16 11:15:52;;;;;;;;;;;;;;;;;;5052162;28;20386;-67
2023/10/16 11:18:18;;;;;;;;;;;;;;;;;;5054744;28;20453;-68
2023/10/16 11:20:45;;;;;;;;;;;;;;;;;;5054510;28;20010;-67
2023/10/16 11:23:15;;;;;;;;;;;;;;;;;;5054683;28;19990;-67
2023/10/16 11:25:44;;;;;;;;;;;;;;;;;;5054615;28;19985;-67
2023/10/16 11:28:09;;;;;;;;;;;;;;;;;;5053322;28;19997;-68
2023/10/16 11:30:38;;;;;;;;;;;;;;;;;;5054529;28;19985;-68
2023/10/16 11:33:04;;;;;;;;;;;;;;;;;;5053210;28;20362;-68
2023/10/16 11:35:34;;;;;;;;;;;;;;;;;;5054300;28;20359;-68
2023/10/16 11:38:04;;;;;;;;;;;;;;;;;;5054329;28;19982;-67
2023/10/16 11:40:39;;;;;;;;;;;;;;;;;;5054233;28;20014;-67
2023/10/16 11:43:05;;;;;;;;;;;;;;;;;;5054099;28;20465;-67
2023/10/16 11:45:33;;;;;;;;;;;;;;;;;;5053720;28;20013;-67
2023/10/16 11:50:44;;;;;;;;;;;;;;;;;;5054076;28;19988;-69
2023/10/16 11:53:10;;;;;;;;;;;;;;;;;;5053778;28;20333;-68
2023/10/16 11:55:36;;;;;;;;;;;;;;;;;;5054056;28;19989;-68
2023/10/16 11:58:02;;;;;;;;;;;;;;;;;;5052671;28;20072;-68
2023/10/16 12:00:31;;;;;;;;;;;;;;;;;;5054139;28;20105;-68
2023/10/16 12:02:56;;;;;;;;;;;;;;;;;;5053314;28;20182;-68
2023/10/16 12:05:27;;;;;;;;;;;;;;;;;;5053801;28;20677;-68
2023/10/16 12:07:56;;;;;;;;;;;;;;;;;;5053963;28;19982;-66
2023/10/16 12:10:23;;;;;;;;;;;;;;;;;;5052683;28;19996;-67
2023/10/16 12:12:49;;;;;;;;;;;;;;;;;;5053863;28;19986;-68
2023/10/16 12:15:15;;;;;;;;;;;;;;;;;;5053711;28;19990;-67
2023/10/16 12:17:43;;;;;;;;;;;;;;;;;;5053514;28;19988;-67
2023/10/16 12:20:11;;;;;;;;;;;;;;;;;;5052184;28;20412;-67
2023/10/16 12:22:40;;;;;;;;;;;;;;;;;;5053682;28;19993;-67
2023/10/16 12:25:09;;;;;;;;;;;;;;;;;;5053449;28;19985;-68
2023/10/16 12:27:36;;;;;;;;;;;;;;;;;;5053289;28;19999;-67
2023/10/16 12:30:02;;;;;;;;;;;;;;;;;;5053468;28;20141;-67
2023/10/16 12:32:28;;;;;;;;;;;;;;;;;;5053317;28;19989;-67
2023/10/16 12:34:54;;;;;;;;;;;;;;;;;;5053294;28;19988;-70
2023/10/16 12:37:22;;;;;;;;;;;;;;;;;;5052012;28;20077;-68
2023/10/16 12:39:52;;;;;;;;;;;;;;;;;;5051787;28;20084;-67
2023/10/16 12:42:18;;;;;;;;;;;;;;;;;;5052953;28;19989;-67
2023/10/16 12:44:44;;;;;;;;;;;;;;;;;;5053337;28;19986;-67
2023/10/16 12:47:11;;;;;;;;;;;;;;;;;;5052459;28;20018;-68
2023/10/16 12:49:37;;;;;;;;;;;;;;;;;;5052861;28;20080;-69
2023/10/16 12:52:03;;;;;;;;;;;;;;;;;;5053273;28;20042;-67
2023/10/16 12:54:29;;;;;;;;;;;;;;;;;;5053107;28;20074;-69
2023/10/16 12:56:57;;;;;;;;;;;;;;;;;;5050420;28;19990;-68
2023/10/16 12:59:25;;;;;;;;;;;;;;;;;;5053050;28;20021;-66
2023/10/16 13:01:52;;;;;;;;;;;;;;;;;;5052903;28;20020;-67
2023/10/16 13:04:18;;;;;;;;;;;;;;;;;;5053033;28;19986;-67
2023/10/16 13:06:44;;;;;;;;;;;;;;;;;;5052680;28;20002;-68
2023/10/16 13:09:18;;;;;;;;;;;;;;;;;;5052564;28;19985;-68
2023/10/16 13:11:44;;;;;;;;;;;;;;;;;;5051571;28;19997;-66
2023/10/16 13:14:11;;;;;;;;;;;;;;;;;;5052658;28;20412;-68
2023/10/16 13:16:37;;;;;;;;;;;;;;;;;;5052428;28;19993;-68
2023/10/16 13:19:03;;;;;;;;;;;;;;;;;;5052168;28;20499;-68
2023/10/16 13:21:33;;;;;;;;;;;;;;;;;;5052249;28;19985;-68
2023/10/16 13:23:59;;;;;;;;;;;;;;;;;;5052586;28;19994;-68
2023/10/16 13:26:25;;;;;;;;;;;;;;;;;;5052242;28;20359;-69
2023/10/16 13:28:50;;;;;;;;;;;;;;;;;;5051094;28;20052;-67
2023/10/16 13:31:16;;;;;;;;;;;;;;;;;;5052007;28;19982;-68
2023/10/16 13:33:44;;;;;;;;;;;;;;;;;;5052225;28;19982;-68
2023/10/16 13:36:11;;;;;;;;;;;;;;;;;;5051999;28;19983;-70
2023/10/16 13:38:37;;;;;;;;;;;;;;;;;;5052241;28;19989;-68
2023/10/16 13:41:06;;;;;;;;;;;;;;;;;;5051895;28;20334;-66
2023/10/16 13:43:32;;;;;;;;;;;;;;;;;;5052043;28;19986;-68
2023/10/16 13:45:58;;;;;;;;;;;;;;;;;;5050307;28;20062;-67
2023/10/16 13:48:28;;;;;;;;;;;;;;;;;;5051690;28;19986;-67
2023/10/16 13:50:54;;;;;;;;;;;;;;;;;;5051791;28;20000;-68
2023/10/16 13:53:20;;;;;;;;;;;;;;;;;;5051758;28;20358;-67
2023/10/16 13:55:52;;;;;;;;;;;;;;;;;;5051809;28;19988;-69
2023/10/16 13:58:19;;;;;;;;;;;;;;;;;;5051893;28;20499;-67
2023/10/16 14:00:47;;;;;;;;;;;;;;;;;;5050439;28;20540;-68
2023/10/16 14:05:44;;;;;;;;;;;;;;;;;;5049437;28;20001;-68
2023/10/16 14:08:10;;;;;;;;;;;;;;;;;;5050811;28;19982;-68
2023/10/16 14:10:36;;;;;;;;;;;;;;;;;;5050468;28;19986;-68
2023/10/16 14:13:10;;;;;;;;;;;;;;;;;;5051648;28;20024;-68
2023/10/16 14:15:37;;;;;;;;;;;;;;;;;;5051434;28;20043;-68
2023/10/16 14:18:04;;;;;;;;;;;;;;;;;;5051449;28;19986;-68
2023/10/16 14:20:37;;;;;;;;;;;;;;;;;;5051325;28;20010;-68
2023/10/16 14:23:09;;;;;;;;;;;;;;;;;;5051586;28;20029;-67
2023/10/16 14:25:38;;;;;;;;;;;;;;;;;;5051338;28;19982;-67
2023/10/16 14:30:49;;;;;;;;;;;;;;;;;;5051304;28;20457;-67
2023/10/16 14:33:15;;;;;;;;;;;;;;;;;;5051348;28;19985;-68
2023/10/16 14:35:41;;;;;;;;;;;;;;;;;;5051380;28;19986;-68
2023/10/16 14:38:07;;;;;;;;;;;;;;;;;;5051252;28;20039;-67
2023/10/16 14:40:35;;;;;;;;;;;;;;;;;;5051101;28;20045;-68
2023/10/16 14:43:01;;;;;;;;;;;;;;;;;;5050158;28;20013;-68
2023/10/16 14:45:29;;;;;;;;;;;;;;;;;;5050855;28;20009;-68
2023/10/16 14:47:55;;;;;;;;;;;;;;;;;;5051426;28;19989;-68
2023/10/16 14:50:24;;;;;;;;;;;;;;;;;;5050968;28;20021;-68
2023/10/16 14:52:50;;;;;;;;;;;;;;;;;;5051452;28;19993;-68
2023/10/16 14:55:17;;;;;;;;;;;;;;;;;;5051295;28;19986;-66
2023/10/16 14:57:43;;;;;;;;;;;;;;;;;;5051334;28;20144;-67
2023/10/16 15:00:12;;;;;;;;;;;;;;;;;;5049965;28;20013;-68
2023/10/16 15:02:38;;;;;;;;;;;;;;;;;;5051100;28;19990;-69
2023/10/16 15:05:12;;;;;;;;;;;;;;;;;;5050963;28;20002;-67
2023/10/16 15:07:38;;;;;;;;;;;;;;;;;;5051026;28;20039;-68
2023/10/16 15:10:06;;;;;;;;;;;;;;;;;;5050947;28;19990;-67
2023/10/16 15:12:32;;;;;;;;;;;;;;;;;;5051213;28;19986;-67
2023/10/16 15:14:58;;;;;;;;;;;;;;;;;;5049904;28;19985;-69
2023/10/16 15:17:24;;;;;;;;;;;;;;;;;;5050946;28;20000;-67
2023/10/16 15:19:50;;;;;;;;;;;;;;;;;;5052060;28;20063;-68
2023/10/16 15:22:16;;;;;;;;;;;;;;;;;;5054519;28;19988;-67
2023/10/16 15:24:42;;;;;;;;;;;;;;;;;;5054475;28;19993;-68
2023/10/16 15:27:08;;;;;;;;;;;;;;;;;;5055044;28;19986;-69
2023/10/16 15:29:34;;;;;;;;;;;;;;;;;;5054619;28;20076;-68
2023/10/16 15:32:01;;;;;;;;;;;;;;;;;;5051798;28;20442;-68
2023/10/16 15:34:26;;;;;;;;;;;;;;;;;;5054298;28;19993;-68
2023/10/16 15:36:52;;;;;;;;;;;;;;;;;;5054142;28;19993;-66
2023/10/16 15:39:22;;;;;;;;;;;;;;;;;;5054328;28;20005;-68
2023/10/16 15:41:48;;;;;;;;;;;;;;;;;;5052873;28;20076;-67
2023/10/16 15:44:18;;;;;;;;;;;;;;;;;;5054223;28;20024;-68
2023/10/16 15:46:44;;;;;;;;;;;;;;;;;;5054069;28;20021;-67
2023/10/16 15:49:10;;;;;;;;;;;;;;;;;;5052945;28;20077;-67
2023/10/16 15:51:37;;;;;;;;;;;;;;;;;;5053824;28;19986;-67
2023/10/16 15:54:03;;;;;;;;;;;;;;;;;;5054263;28;20356;-67
2023/10/16 15:56:30;;;;;;;;;;;;;;;;;;5054339;28;20592;-68
2023/10/16 15:58:56;;;;;;;;;;;;;;;;;;5054014;28;20010;-67
2023/10/16 16:01:25;;;;;;;;;;;;;;;;;;5053961;28;19989;-68
2023/10/16 16:03:51;;;;;;;;;;;;;;;;;;5053643;28;20044;-68
2023/10/16 16:06:17;;;;;;;;;;;;;;;;;;5052268;28;20045;-67
2023/10/16 16:08:43;;;;;;;;;;;;;;;;;;5053550;28;20478;-67
2023/10/16 16:11:13;;;;;;;;;;;;;;;;;;5053800;28;20472;-68
2023/10/16 16:13:39;;;;;;;;;;;;;;;;;;5053690;28;19992;-68
2023/10/16 16:16:05;;;;;;;;;;;;;;;;;;5053520;28;19986;-68
2023/10/16 16:18:32;;;;;;;;;;;;;;;;;;5053532;28;20449;-68
2023/10/16 16:20:58;;;;;;;;;;;;;;;;;;5053924;28;20049;-69
2023/10/16 16:23:25;;;;;;;;;;;;;;;;;;5052556;28;20083;-66
2023/10/16 16:25:53;;;;;;;;;;;;;;;;;;5053892;28;19982;-69
2023/10/16 16:28:19;;;;;;;;;;;;;;;;;;5053449;28;19989;-69
2023/10/16 16:30:45;;;;;;;;;;;;;;;;;;5046283;28;19987;-67
2023/10/16 16:33:12;;;;;;;;;;;;;;;;;;5033938;28;19986;-67
2023/10/16 16:35:38;;;;;;;;;;;;;;;;;;5051149;28;20084;-67
2023/10/16 16:38:12;;;;;;;;;;;;;;;;;;5054420;28;19998;-68
2023/10/16 16:40:38;;;;;;;;;;;;;;;;;;5050705;28;20116;-67
2023/10/16 16:43:04;;;;;;;;;;;;;;;;;;5041468;28;20073;-69
2023/10/16 16:45:30;;;;;;;;;;;;;;;;;;5035012;28;20014;-68
2023/10/16 16:47:57;;;;;;;;;;;;;;;;;;5037129;28;20542;-68
2023/10/16 16:50:24;;;;;;;;;;;;;;;;;;5043778;28;19989;-68
2023/10/16 16:52:50;;;;;;;;;;;;;;;;;;5039031;28;19987;-68
2023/10/16 16:55:16;;;;;;;;;;;;;;;;;;5032715;28;19993;-67
2023/10/16 16:57:42;;;;;;;;;;;;;;;;;;5035682;28;19990;-67
2023/10/16 17:00:11;;;;;;;;;;;;;;;;;;5051199;28;20049;-67
2023/10/16 17:02:37;;;;;;;;;;;;;;;;;;5050111;28;20042;-66
2023/10/16 17:05:03;;;;;;;;;;;;;;;;;;5035143;28;20382;-69
2023/10/16 17:07:31;;;;;;;;;;;;;;;;;;5048437;28;20400;-68
2023/10/16 17:09:57;;;;;;;;;;;;;;;;;;5032506;28;19986;-67
2023/10/16 17:12:23;;;;;;;;;;;;;;;;;;5032480;28;19994;-66
2023/10/16 17:14:50;;;;;;;;;;;;;;;;;;5033664;28;19990;-67
2023/10/16 17:17:16;;;;;;;;;;;;;;;;;;5040896;28;19986;-66
2023/10/16 17:19:42;;;;;;;;;;;;;;;;;;5045601;28;20014;-67
2023/10/16 17:22:10;;;;;;;;;;;;;;;;;;5040490;28;20036;-65
2023/10/16 17:24:36;;;;;;;;;;;;;;;;;;5040539;28;19982;-67
2023/10/16 17:27:02;;;;;;;;;;;;;;;;;;5041741;28;20045;-66
2023/10/16 17:29:28;;;;;;;;;;;;;;;;;;5039927;28;19990;-66
2023/10/16 17:31:55;;;;;;;;;;;;;;;;;;5040572;28;19986;-67
2023/10/16 17:34:24;;;;;;;;;;;;;;;;;;5039763;28;19986;-68
2023/10/16 17:36:50;;;;;;;;;;;;;;;;;;5042091;28;20139;-68
2023/10/16 17:39:18;;;;;;;;;;;;;;;;;;5038943;28;20829;-67
2023/10/16 17:41:44;;;;;;;;;;;;;;;;;;5043197;28;20076;-67
2023/10/16 17:44:10;;;;;;;;;;;;;;;;;;5040307;28;19982;-66
2023/10/16 17:46:38;;;;;;;;;;;;;;;;;;5038293;28;20060;-66
2023/10/16 17:49:06;;;;;;;;;;;;;;;;;;5039977;28;20002;-66
2023/10/16 17:51:34;;;;;;;;;;;;;;;;;;5038994;28;19985;-66
2023/10/16 17:54:03;;;;;;;;;;;;;;;;;;5039673;28;20079;-66
2023/10/16 17:56:29;;;;;;;;;;;;;;;;;;5040907;28;19986;-67
2023/10/16 17:58:57;;;;;;;;;;;;;;;;;;5037894;28;19985;-67
2023/10/16 18:01:23;;;;;;;;;;;;;;;;;;5051552;28;19986;-66
2023/10/16 18:03:49;;;;;;;;;;;;;;;;;;5036388;28;20473;-66
2023/10/16 18:06:15;;;;;;;;;;;;;;;;;;5045099;28;20378;-67
2023/10/16 18:08:46;;;;;;;;;;;;;;;;;;5050026;28;20430;-67
2023/10/16 18:11:16;;;;;;;;;;;;;;;;;;5046625;28;19990;-67
2023/10/16 18:13:42;;;;;;;;;;;;;;;;;;5046122;28;19997;-67
2023/10/16 18:16:08;;;;;;;;;;;;;;;;;;5051538;28;19989;-67
2023/10/16 18:18:34;;;;;;;;;;;;;;;;;;5045532;28;20008;-67
2023/10/16 18:21:05;;;;;;;;;;;;;;;;;;5071153;28;20108;-67
2023/10/16 18:23:31;;;;;;;;;;;;;;;;;;5059182;28;19989;-68
2023/10/16 18:25:57;;;;;;;;;;;;;;;;;;5032474;28;20017;-66
2023/10/16 18:28:23;;;;;;;;;;;;;;;;;;5032043;28;19986;-67
2023/10/16 18:30:49;;;;;;;;;;;;;;;;;;5039389;28;19994;-67
2023/10/16 18:33:15;;;;;;;;;;;;;;;;;;5032000;28;19993;-66
2023/10/16 18:35:41;;;;;;;;;;;;;;;;;;5037308;28;19998;-67
2023/10/16 18:38:10;;;;;;;;;;;;;;;;;;5051190;28;19993;-67
2023/10/16 18:40:36;;;;;;;;;;;;;;;;;;5050569;28;20013;-66
2023/10/16 18:43:02;;;;;;;;;;;;;;;;;;5035296;28;19996;-66
2023/10/16 18:45:28;;;;;;;;;;;;;;;;;;5038704;28;20112;-66